Terminal Aerodrome Forecast
Issued by NWS Paducah, KY

Home | Current Version | Previous Version | Text Only | Print | Product List | Glossary On
Versions: 1 2 3 4 5 6 7 8 9 10 11 12 13 14 15 16 17 18 19 20
000
FTUS43 KPAH 292339
TAFPAH
TAF
KPAH 292339Z 3000/3024 09005KT 6SM -SHRA BR OVC080
     FM300200 09005KT P6SM VCSH SCT030 OVC080
     FM300900 09008KT 5SM -SHRA BR BKN025
      TEMPO 3009/3013 2SM TSRA BR BKN012CB
     FM301600 20012G19KT P6SM SCT025 BKN040=

USA.gov is the U.S. government's official web portal to all federal, state and local government web resources and services.